METAR Data
IDs: Format: Raw Decoded Include TAF

Data at: 0319 UTC 25 Feb 2021

KCSQ 250315Z AUTO 30005KT 10SM CLR M02/M02 A3031 RMK AO2